Terminal Aerodrome Forecast
Issued by NWS

Home | Current Version | Previous Version | Text Only | Print | Product List | Glossary On
Versions: 1 2 3 4 5 6 7 8 9 10 11 12 13 14 15 16 17
241
FTPA31 PHFO 261734 AAA
TAFHMK
TAF AMD
PHMK 261734Z 2618/2718 05005KT P6SM FEW030 SCT045
     FM262000 04011G16KT P6SM FEW030 SCT045
     FM270300 05006KT P6SM FEW030 SCT040=

USA.gov is the U.S. government's official web portal to all federal, state and local government web resources and services.